Time;durP1;ratioP1;P1;durP2;ratioP2;P2;SDS_P1;SDS_P2;PMS_P1;PMS_P2;Temp;Humidity;BMP_temperature;BMP_pressure;BME280_temperature;BME280_humidity;BME280_pressure;Samples;Min_cycle;Max_cycle;Signal;HPM_P1;HPM_P2
2021/05/31 00:02:05;;;;;;;8.75;2.10;;;;;;;10.20;45.02;100162.31;5081981;28;20043;-50
2021/05/31 00:04:31;;;;;;;4.22;2.20;;;;;;;10.07;45.19;100151.66;5085520;28;20051;-53
2021/05/31 00:07:10;;;;;;;4.38;1.75;;;;;;;10.02;45.36;100160.03;5087373;28;20040;-53
2021/05/31 00:09:37;;;;;;;4.00;2.00;;;;;;;9.97;45.37;100161.31;5088001;28;20024;-52
2021/05/31 00:12:05;;;;;;;5.88;1.70;;;;;;;9.77;45.36;100131.53;5087841;28;20036;-50
2021/05/31 00:14:30;;;;;;;5.63;2.28;;;;;;;9.62;45.57;100120.97;5087352;28;20050;-51
2021/05/31 00:16:56;;;;;;;3.72;2.05;;;;;;;9.67;45.49;100133.19;5073979;28;20384;-54
2021/05/31 00:19:22;;;;;;;5.00;1.75;;;;;;;9.81;45.94;100167.78;5087671;28;20036;-51
2021/05/31 00:21:48;;;;;;;4.97;2.00;;;;;;;9.79;45.66;100168.88;5086954;28;20055;-53
2021/05/31 00:24:14;;;;;;;5.05;2.05;;;;;;;9.77;45.92;100155.59;5071206;28;20475;-49
2021/05/31 00:26:40;;;;;;;4.28;1.88;;;;;;;9.80;45.73;100158.03;5087423;28;20138;-57
2021/05/31 00:29:05;;;;;;;5.40;2.08;;;;;;;9.75;45.83;100157.53;5089336;28;20058;-52
2021/05/31 00:31:31;;;;;;;4.90;1.77;;;;;;;9.60;45.99;100146.13;5089324;28;20043;-48
2021/05/31 00:34:11;;;;;;;11.48;2.20;;;;;;;9.66;45.90;100147.50;5088763;28;20506;-55
2021/05/31 00:36:37;;;;;;;4.97;2.20;;;;;;;9.65;46.07;100143.13;5087922;28;20085;-52
2021/05/31 00:39:04;;;;;;;6.10;2.10;;;;;;;9.53;46.01;100116.28;5089748;28;20093;-54
2021/05/31 00:41:29;;;;;;;4.97;2.08;;;;;;;9.57;46.15;100133.81;5084063;28;20045;-50
2021/05/31 00:43:56;;;;;;;5.13;1.95;;;;;;;9.61;45.95;100119.25;5072581;28;20115;-53
2021/05/31 00:46:24;;;;;;;4.32;1.90;;;;;;;9.16;46.39;100050.31;5072589;28;20032;-49
2021/05/31 00:48:50;;;;;;;6.35;2.00;;;;;;;9.66;46.57;100142.16;5076114;28;20040;-52
2021/05/31 00:51:15;;;;;;;2.90;1.40;;;;;;;9.69;45.95;100136.59;5072493;28;20056;-54
2021/05/31 00:53:41;;;;;;;4.88;1.90;;;;;;;9.59;45.95;100131.88;5074208;28;20032;-50
2021/05/31 00:56:07;;;;;;;2.47;1.60;;;;;;;9.87;45.28;100134.41;5072789;28;20033;-49
2021/05/31 00:58:33;;;;;;;5.65;1.60;;;;;;;9.82;44.99;100142.75;5072179;28;20166;-55
2021/05/31 01:01:00;;;;;;;5.68;1.50;;;;;;;9.97;44.61;100131.91;5072647;28;20043;-54
2021/05/31 01:03:26;;;;;;;1.48;1.38;;;;;;;10.07;44.30;100145.47;5072503;28;20435;-55
2021/05/31 01:05:54;;;;;;;5.90;1.70;;;;;;;10.00;44.52;100145.06;5084426;28;20044;-55
2021/05/31 01:08:37;;;;;;;3.40;1.58;;;;;;;10.07;44.05;100132.09;5071931;28;20037;-54
2021/05/31 01:11:11;;;;;;;7.70;1.85;;;;;;;10.15;43.51;100137.72;5072614;28;20047;-53
2021/05/31 01:14:07;;;;;;;7.18;1.83;;;;;;;10.06;43.95;100155.28;5070964;28;20062;-50
2021/05/31 01:16:49;;;;;;;7.27;1.83;;;;;;;9.25;44.30;100027.44;5072989;28;20139;-53
2021/05/31 01:19:53;;;;;;;2.00;1.17;;;;;;;9.82;44.89;100145.41;5072340;28;20037;-51
2021/05/31 01:22:24;;;;;;;2.45;1.50;;;;;;;9.88;44.62;100144.13;5030869;28;20087;-50
2021/05/31 01:25:02;;;;;;;5.38;1.60;;;;;;;10.11;43.94;100153.13;5072049;28;20397;-53
2021/05/31 01:27:41;;;;;;;3.50;1.42;;;;;;;9.61;43.96;100064.97;5071641;28;20094;-50
2021/05/31 01:30:11;;;;;;;2.17;1.45;;;;;;;10.06;43.86;100155.28;5072174;28;20107;-50
2021/05/31 01:32:45;;;;;;;2.97;1.40;;;;;;;10.26;43.16;100161.88;5072191;28;20120;-51
2021/05/31 01:35:16;;;;;;;4.03;1.42;;;;;;;9.96;43.65;100135.56;5071791;28;20028;-51
2021/05/31 01:37:43;;;;;;;4.07;1.40;;;;;;;9.55;44.08;100109.03;5072974;28;20408;-54
2021/05/31 01:40:11;;;;;;;2.30;1.50;;;;;;;9.81;44.59;100167.78;5072327;28;20136;-52
2021/05/31 01:42:37;;;;;;;2.30;1.02;;;;;;;9.96;44.17;100155.13;5071805;28;20043;-52
2021/05/31 01:45:04;;;;;;;2.28;1.65;;;;;;;9.94;44.54;100161.56;5071260;28;20396;-50
2021/05/31 01:47:30;;;;;;;2.25;1.08;;;;;;;9.47;43.65;100057.94;5072338;28;20354;-48
2021/05/31 01:49:56;;;;;;;2.72;1.15;;;;;;;10.12;43.06;100125.41;5071209;28;20036;-53
2021/05/31 01:52:25;;;;;;;7.30;1.40;;;;;;;10.27;43.33;100146.66;5071441;28;20148;-52
2021/05/31 01:54:55;;;;;;;5.38;1.40;;;;;;;10.18;43.75;100161.56;5071302;28;20040;-51
2021/05/31 01:57:21;;;;;;;2.97;1.50;;;;;;;10.08;43.80;100160.53;5074111;28;20028;-51
2021/05/31 01:59:48;;;;;;;4.20;1.20;;;;;;;9.98;43.45;100128.25;5080419;28;20164;-52
2021/05/31 02:02:15;;;;;;;3.53;1.27;;;;;;;10.28;43.33;100165.28;5071395;28;20177;-55
2021/05/31 02:04:40;;;;;;;3.03;1.30;;;;;;;10.02;43.82;100169.88;5071050;28;20052;-52
2021/05/31 02:07:06;;;;;;;5.35;1.63;;;;;;;10.13;43.65;100172.63;5071138;28;20040;-52
2021/05/31 02:09:31;;;;;;;2.67;1.30;;;;;;;9.58;44.04;100111.47;5071125;28;20037;-54
2021/05/31 02:12:07;;;;;;;6.03;1.85;;;;;;;9.93;43.73;100133.94;5070608;28;20071;-50
2021/05/31 02:14:51;;;;;;;6.97;1.70;;;;;;;10.20;43.71;100178.34;5070835;28;20029;-53
2021/05/31 02:17:26;;;;;;;3.80;1.92;;;;;;;10.16;43.82;100183.09;5070691;28;20146;-55
2021/05/31 02:19:58;;;;;;;3.97;1.92;;;;;;;10.11;44.39;100182.56;5085513;28;20369;-51
2021/05/31 02:22:24;;;;;;;8.07;1.98;;;;;;;9.92;44.25;100145.59;5090666;28;20488;-52
2021/05/31 02:24:51;;;;;;;7.78;1.95;;;;;;;10.31;44.02;100159.72;5072780;28;20050;-51
2021/05/31 02:27:16;;;;;;;5.32;1.90;;;;;;;10.67;43.14;100166.94;5091156;28;20039;-47
2021/05/31 02:29:42;;;;;;;5.72;2.60;;;;;;;10.74;42.75;100176.22;5089167;28;20040;-51
2021/05/31 02:32:08;;;;;;;4.97;2.05;;;;;;;10.56;43.31;100173.09;5090913;28;20031;-51
2021/05/31 02:34:33;;;;;;;10.25;2.08;;;;;;;10.84;42.62;100184.38;5073187;28;20054;-49
2021/05/31 02:36:59;;;;;;;3.90;1.65;;;;;;;10.87;41.95;100165.44;5090228;28;20028;-54
2021/05/31 02:39:25;;;;;;;7.68;2.33;;;;;;;10.92;42.17;100173.97;5089277;28;20043;-50
2021/05/31 02:41:50;;;;;;;4.15;2.22;;;;;;;11.12;42.00;100184.97;5090802;28;20053;-50
2021/05/31 02:44:16;;;;;;;10.50;2.20;;;;;;;10.89;41.67;100150.09;5090676;28;20032;-53
2021/05/31 02:46:41;;;;;;;7.28;2.08;;;;;;;10.95;42.55;100180.91;5090509;28;20086;-50
2021/05/31 02:49:07;;;;;;;4.28;2.03;;;;;;;10.89;42.71;100192.97;5090647;28;20050;-50
2021/05/31 02:51:34;;;;;;;3.92;1.80;;;;;;;10.74;43.07;100177.06;5077042;28;20246;-51
2021/05/31 02:54:00;;;;;;;5.15;2.10;;;;;;;10.82;43.18;100200.59;5089982;28;20085;-54
2021/05/31 02:56:25;;;;;;;2.42;1.88;;;;;;;10.98;42.05;100194.91;5090165;28;20028;-52
2021/05/31 02:58:51;;;;;;;5.88;2.00;;;;;;;10.33;42.52;100098.03;5090299;28;20032;-49
2021/05/31 03:01:16;;;;;;;6.05;1.90;;;;;;;10.37;42.93;100145.03;5088037;28;20549;-52
2021/05/31 03:03:42;;;;;;;13.95;2.08;;;;;;;10.40;43.22;100131.44;5089535;28;20050;-56
2021/05/31 03:06:08;;;;;;;6.32;1.92;;;;;;;10.66;42.83;100203.59;5090635;28;20057;-56
2021/05/31 03:08:33;;;;;;;8.02;2.55;;;;;;;10.67;42.74;100193.72;5090401;28;20024;-53
2021/05/31 03:10:59;;;;;;;3.58;1.90;;;;;;;10.63;43.09;100191.25;5088115;28;20040;-46
2021/05/31 03:13:24;;;;;;;5.63;1.80;;;;;;;10.84;42.45;100166.50;5090048;28;20043;-50
2021/05/31 03:15:51;;;;;;;4.57;1.70;;;;;;;10.87;42.60;100192.22;5090425;28;20377;-58
2021/05/31 03:18:17;;;;;;;6.18;1.60;;;;;;;11.01;42.96;100204.56;5090563;28;20553;-50
2021/05/31 03:20:42;;;;;;;4.80;1.85;;;;;;;11.22;42.72;100196.69;5089784;28;20028;-49
2021/05/31 03:23:08;;;;;;;6.32;2.15;;;;;;;11.62;41.40;100201.59;5087775;28;20040;-49
2021/05/31 03:25:33;;;;;;;6.85;2.30;;;;;;;11.98;40.07;100203.28;5090213;28;20510;-54
2021/05/31 03:27:59;;;;;;;6.43;1.80;;;;;;;12.05;39.91;100215.25;5090186;28;20065;-53
2021/05/31 03:30:26;;;;;;;4.30;2.17;;;;;;;12.13;39.50;100191.34;5089369;28;20319;-55
2021/05/31 03:32:52;;;;;;;3.05;1.65;;;;;;;12.03;39.66;100188.56;5087474;28;20032;-54
2021/05/31 03:35:19;;;;;;;5.22;1.88;;;;;;;12.30;39.60;100191.81;5090385;28;20126;-53
2021/05/31 03:37:45;;;;;;;5.75;1.77;;;;;;;12.49;39.00;100207.25;5089787;28;20036;-53
2021/05/31 03:40:13;;;;;;;3.33;1.67;;;;;;;12.55;39.04;100211.28;5071366;28;20032;-53
2021/05/31 03:42:38;;;;;;;4.88;1.85;;;;;;;12.70;38.17;100214.50;5087832;28;20043;-53
2021/05/31 03:45:06;;;;;;;3.63;2.00;;;;;;;12.48;38.73;100217.13;5070552;28;20032;-55
2021/05/31 03:47:31;;;;;;;5.68;1.85;;;;;;;12.24;39.12;100170.81;5069720;28;20033;-53
2021/05/31 03:49:57;;;;;;;2.85;1.75;;;;;;;12.37;38.83;100182.25;5068860;28;20037;-51
2021/05/31 03:52:22;;;;;;;6.57;1.60;;;;;;;12.67;38.32;100199.50;5067929;28;20117;-52
2021/05/31 03:54:48;;;;;;;5.93;2.03;;;;;;;12.51;38.38;100204.41;5070881;28;20109;-51
2021/05/31 03:57:13;;;;;;;8.40;2.22;;;;;;;12.23;38.21;100167.28;5067890;28;20059;-55
2021/05/31 03:59:39;;;;;;;4.85;1.52;;;;;;;12.13;38.73;100222.69;5068780;28;20115;-50
2021/05/31 04:02:05;;;;;;;6.50;1.80;;;;;;;11.61;39.21;100119.44;5068971;28;20197;-53
2021/05/31 04:04:40;;;;;;;4.22;1.77;;;;;;;11.97;38.96;100180.13;5075377;28;20024;-49
2021/05/31 04:12:34;;;;;;;3.80;1.35;;;;;;;12.54;38.08;100186.22;5069898;28;20443;-53
2021/05/31 04:14:59;;;;;;;5.78;2.35;;;;;;;12.75;37.40;100170.13;5072866;28;20036;-49
2021/05/31 04:17:25;;;;;;;6.78;1.50;;;;;;;13.15;36.94;100189.22;5072909;28;20029;-52
2021/05/31 04:19:50;;;;;;;8.75;1.70;;;;;;;13.05;36.56;100186.47;5073123;28;20135;-48
2021/05/31 04:22:16;;;;;;;1.52;1.10;;;;;;;12.70;37.37;100183.09;5072786;28;20036;-49
2021/05/31 04:24:41;;;;;;;2.15;1.63;;;;;;;12.65;37.85;100185.34;5092009;28;20036;-49
2021/05/31 04:27:07;;;;;;;3.70;1.55;;;;;;;12.56;37.65;100170.00;5092992;28;20036;-50
2021/05/31 04:29:32;;;;;;;1.67;1.20;;;;;;;12.58;38.08;100184.16;5093362;28;20042;-56
2021/05/31 04:31:58;;;;;;;3.00;1.10;;;;;;;12.90;37.52;100183.25;5092993;28;20036;-52
2021/05/31 04:34:23;;;;;;;3.65;1.23;;;;;;;12.72;37.03;100135.47;5092867;28;20036;-51
2021/05/31 04:36:49;;;;;;;8.35;1.38;;;;;;;13.25;36.21;100127.44;5093347;28;20105;-47
2021/05/31 04:39:14;;;;;;;1.75;1.08;;;;;;;14.11;35.45;100198.91;5092517;28;20130;-47
2021/05/31 04:41:41;;;;;;;5.97;0.98;;;;;;;14.54;34.57;100196.84;5092780;28;20032;-51
2021/05/31 04:44:07;;;;;;;2.78;1.13;;;;;;;14.67;33.82;100178.53;5085123;28;20063;-52
2021/05/31 04:46:33;;;;;;;4.47;1.98;;;;;;;14.53;33.84;100192.44;5072380;28;20068;-50
2021/05/31 04:49:03;;;;;;;2.28;1.52;;;;;;;14.35;34.71;100190.44;5072085;28;20386;-52
2021/05/31 04:51:29;;;;;;;4.18;1.60;;;;;;;13.80;35.31;100094.84;5072423;28;20495;-50
2021/05/31 04:53:57;;;;;;;8.00;1.80;;;;;;;14.01;35.16;100096.59;5074136;28;20047;-51
2021/05/31 04:56:23;;;;;;;7.45;1.50;;;;;;;14.76;34.62;100193.91;5091303;28;20518;-53
2021/05/31 04:58:48;;;;;;;6.05;1.50;;;;;;;15.13;34.35;100184.22;5092629;28;20123;-51
2021/05/31 05:01:14;;;;;;;4.07;1.45;;;;;;;15.15;33.97;100184.06;5092536;28;20511;-52
2021/05/31 05:03:39;;;;;;;3.97;1.63;;;;;;;15.28;34.00;100181.91;5092511;28;20380;-51
2021/05/31 05:06:05;;;;;;;4.88;1.35;;;;;;;15.49;33.45;100172.78;5090603;28;20032;-53
2021/05/31 05:08:30;;;;;;;4.60;1.55;;;;;;;15.48;33.50;100176.47;5092325;28;20093;-53
2021/05/31 05:10:56;;;;;;;5.72;1.60;;;;;;;15.69;33.28;100178.94;5092937;28;20032;-56
2021/05/31 05:13:22;;;;;;;4.00;1.38;;;;;;;15.85;32.71;100167.50;5092727;28;20028;-54
2021/05/31 05:15:48;;;;;;;5.63;1.40;;;;;;;16.10;32.15;100183.19;5090511;28;20043;-55
2021/05/31 05:18:13;;;;;;;2.72;1.50;;;;;;;16.24;32.11;100177.25;5091776;28;20237;-51
2021/05/31 05:20:38;;;;;;;4.35;1.80;;;;;;;16.31;31.89;100167.56;5092309;28;20032;-53
2021/05/31 05:23:04;;;;;;;6.63;1.83;;;;;;;16.36;31.64;100177.88;5092584;28;20408;-51
2021/05/31 05:25:30;;;;;;;9.05;1.70;;;;;;;16.35;31.97;100182.44;5089439;28;20036;-51
2021/05/31 05:27:57;;;;;;;8.30;2.08;;;;;;;16.36;31.91;100180.56;5080669;28;20111;-51
2021/05/31 05:30:25;;;;;;;3.20;1.50;;;;;;;16.36;32.07;100175.19;5092652;28;20040;-53
2021/05/31 05:32:52;;;;;;;14.82;2.13;;;;;;;16.38;32.22;100175.88;5091697;28;20420;-53
2021/05/31 05:35:23;;;;;;;4.88;1.80;;;;;;;16.21;31.96;100151.41;5091691;28;20893;-52
2021/05/31 05:43:21;;;;;;;7.82;1.65;;;;;;;16.77;31.42;100162.06;5071747;28;20102;-50
2021/05/31 05:48:31;;;;;;;4.95;1.52;;;;;;;16.72;31.47;100161.69;5071116;28;20115;-55
2021/05/31 05:51:07;;;;;;;3.17;1.30;;;;;;;16.44;30.87;100133.88;5074516;28;20138;-53
2021/05/31 05:53:35;;;;;;;3.67;1.85;;;;;;;16.35;31.86;100168.06;5091474;28;20455;-54
2021/05/31 05:56:02;;;;;;;6.38;1.88;;;;;;;16.33;32.11;100149.31;5091568;28;20081;-53
2021/05/31 05:58:29;;;;;;;8.45;2.20;;;;;;;16.67;32.00;100177.53;5091850;28;20046;-54
2021/05/31 06:00:59;;;;;;;4.70;1.70;;;;;;;16.83;31.59;100176.81;5091531;28;20127;-53
2021/05/31 06:03:25;;;;;;;5.90;1.80;;;;;;;16.76;31.60;100178.44;5085396;28;20043;-56
2021/05/31 06:05:53;;;;;;;10.15;2.08;;;;;;;16.62;31.73;100193.31;5080464;28;20038;-53
2021/05/31 06:08:19;;;;;;;6.07;2.00;;;;;;;16.56;32.02;100158.81;5079030;28;20043;-53
2021/05/31 06:10:46;;;;;;;5.78;1.48;;;;;;;16.82;31.53;100174.25;5078461;28;20036;-52
2021/05/31 06:13:19;;;;;;;5.35;2.05;;;;;;;16.86;31.63;100189.16;5080670;28;20304;-53
2021/05/31 06:15:45;;;;;;;6.95;1.73;;;;;;;16.96;31.37;100173.69;5079660;28;20020;-55
2021/05/31 06:18:10;;;;;;;8.10;1.85;;;;;;;17.19;31.14;100192.16;5079966;28;20462;-51
2021/05/31 06:20:36;;;;;;;3.75;1.77;;;;;;;17.32;30.58;100180.91;5082811;28;20111;-51
2021/05/31 06:23:03;;;;;;;6.18;1.60;;;;;;;17.28;29.42;100156.03;5078977;28;20085;-54
2021/05/31 06:25:29;;;;;;;4.90;1.55;;;;;;;18.10;29.01;100184.53;5081419;28;20039;-49
2021/05/31 06:27:54;;;;;;;7.88;1.83;;;;;;;18.72;28.07;100177.03;5078627;28;20118;-52
2021/05/31 06:30:20;;;;;;;6.10;1.73;;;;;;;18.85;27.69;100125.00;5079812;28;20051;-53
2021/05/31 06:32:46;;;;;;;4.97;2.38;;;;;;;19.25;27.65;100171.28;5082241;28;20108;-53
2021/05/31 06:35:12;;;;;;;7.38;1.90;;;;;;;19.33;27.88;100185.69;5090135;28;20040;-50
2021/05/31 06:37:38;;;;;;;5.88;1.80;;;;;;;19.20;27.21;100156.34;5090755;28;20043;-47
2021/05/31 06:40:10;;;;;;;4.10;1.80;;;;;;;19.46;26.71;100179.72;5078164;28;20032;-49
2021/05/31 06:42:37;;;;;;;6.15;1.67;;;;;;;19.20;26.91;100177.19;5086247;28;20051;-55
2021/05/31 06:45:07;;;;;;;7.28;1.50;;;;;;;19.04;27.17;100181.63;5090766;28;20097;-50
2021/05/31 06:47:33;;;;;;;9.27;1.88;;;;;;;18.96;27.50;100178.06;5090127;28;20036;-57
2021/05/31 06:49:58;;;;;;;6.20;1.95;;;;;;;18.86;27.55;100184.47;5065276;28;20024;-52
2021/05/31 06:52:24;;;;;;;6.85;1.70;;;;;;;18.73;27.47;100181.44;5079322;28;20060;-51
2021/05/31 06:54:49;;;;;;;6.22;1.70;;;;;;;18.77;27.43;100180.91;5090275;28;20044;-55
2021/05/31 06:57:15;;;;;;;4.95;1.58;;;;;;;18.86;27.07;100170.09;5090328;28;20070;-48
2021/05/31 06:59:40;;;;;;;3.33;1.35;;;;;;;19.20;27.05;100171.78;5090504;28;20079;-51
2021/05/31 07:02:06;;;;;;;9.02;2.08;;;;;;;18.84;26.28;100083.44;5090301;28;20036;-53
2021/05/31 07:04:32;;;;;;;4.05;1.60;;;;;;;19.49;25.97;100173.94;5090938;28;20031;-56
2021/05/31 07:06:57;;;;;;;8.43;1.70;;;;;;;19.71;25.92;100159.75;5091022;28;20089;-55
2021/05/31 07:09:23;;;;;;;4.85;1.67;;;;;;;19.81;25.97;100160.41;5072551;28;20114;-53
2021/05/31 07:11:48;;;;;;;8.57;1.73;;;;;;;20.18;25.47;100167.03;5090556;28;20512;-53
2021/05/31 07:14:19;;;;;;;5.65;1.40;;;;;;;20.43;24.44;100169.59;5090227;28;20047;-53
2021/05/31 07:16:45;;;;;;;4.88;1.77;;;;;;;20.37;24.94;100159.47;5090765;28;20093;-52
2021/05/31 07:19:11;;;;;;;6.43;2.10;;;;;;;20.49;24.63;100129.97;5090381;28;20028;-51
2021/05/31 07:21:41;;;;;;;7.22;1.80;;;;;;;19.73;24.52;99970.28;5090151;28;20031;-52
2021/05/31 07:24:10;;;;;;;8.98;2.08;;;;;;;21.09;24.29;100173.69;5089941;28;20093;-54
2021/05/31 07:26:37;;;;;;;10.20;2.38;;;;;;;21.57;24.18;100164.34;5090330;28;20063;-53
2021/05/31 07:29:05;;;;;;;9.77;2.20;;;;;;;22.15;23.59;100164.50;5089899;28;20471;-56
2021/05/31 07:31:31;;;;;;;4.53;1.48;;;;;;;22.36;23.26;100171.03;5090103;28;20038;-54
2021/05/31 07:33:57;;;;;;;5.95;1.65;;;;;;;22.35;23.37;100183.84;5089782;28;20509;-53
2021/05/31 07:36:22;;;;;;;6.68;1.58;;;;;;;22.47;22.15;100186.09;5072411;28;20537;-55
2021/05/31 07:38:50;;;;;;;2.83;1.10;;;;;;;21.76;21.14;100177.44;5090027;28;20039;-54
2021/05/31 07:41:15;;;;;;;2.53;1.27;;;;;;;22.20;21.78;100181.16;5089208;28;20024;-54
2021/05/31 07:43:41;;;;;;;1.73;1.23;;;;;;;23.39;20.13;100160.84;5089411;28;20043;-55
2021/05/31 07:46:07;;;;;;;2.92;1.08;;;;;;;24.11;19.78;100171.56;5089653;28;20111;-54
2021/05/31 07:48:32;;;;;;;7.25;1.30;;;;;;;24.08;19.17;100159.97;5089548;28;20032;-49
2021/05/31 07:51:15;;;;;;;7.00;1.70;;;;;;;23.30;19.86;100163.75;5088262;28;20147;-67
2021/05/31 07:53:45;;;;;;;4.53;1.33;;;;;;;21.63;21.35;100099.06;5089463;28;20055;-53
2021/05/31 07:56:12;;;;;;;6.63;1.40;;;;;;;21.18;21.95;100179.91;5089593;28;20039;-53
2021/05/31 07:58:42;;;;;;;5.15;1.38;;;;;;;19.55;23.75;100085.50;5090030;28;20122;-51
2021/05/31 08:01:08;;;;;;;4.50;1.35;;;;;;;19.63;24.20;100157.91;5088909;28;20032;-58
2021/05/31 08:03:34;;;;;;;3.83;1.35;;;;;;;19.56;24.60;100173.22;5089731;28;20043;-53
2021/05/31 08:06:00;;;;;;;3.97;1.67;;;;;;;19.39;24.86;100181.41;5082494;28;20523;-54
2021/05/31 08:08:27;;;;;;;9.45;2.20;;;;;;;18.91;26.08;100181.28;5076182;28;20043;-57
2021/05/31 08:10:53;;;;;;;4.65;1.52;;;;;;;18.37;27.01;100179.88;5073976;28;20153;-54
2021/05/31 08:13:19;;;;;;;4.13;1.50;;;;;;;17.91;26.98;100145.84;5073661;28;20036;-54
2021/05/31 08:15:44;;;;;;;4.72;1.50;;;;;;;17.87;27.23;100174.28;5076453;28;20043;-55
2021/05/31 08:18:11;;;;;;;3.33;1.30;;;;;;;17.98;25.11;100158.72;5081800;28;20545;-56
2021/05/31 08:20:40;;;;;;;5.28;1.15;;;;;;;17.46;24.91;100158.66;5087737;28;20028;-51
2021/05/31 08:23:06;;;;;;;2.03;1.05;;;;;;;17.28;25.94;100169.56;5072518;28;20042;-55
2021/05/31 08:25:33;;;;;;;4.85;1.27;;;;;;;17.94;25.86;100177.16;5080297;28;20040;-50
2021/05/31 08:28:01;;;;;;;7.85;1.40;;;;;;;18.60;24.93;100169.22;5078996;28;20047;-53
2021/05/31 08:30:26;;;;;;;4.28;1.30;;;;;;;18.94;24.72;100164.66;5084056;28;20059;-51
2021/05/31 08:32:52;;;;;;;5.80;0.98;;;;;;;18.87;24.51;100098.53;5085190;28;20485;-56
2021/05/31 08:35:17;;;;;;;1.33;0.75;;;;;;;19.53;23.44;100163.53;5074985;28;20031;-51
2021/05/31 08:37:43;;;;;;;7.15;1.30;;;;;;;19.34;23.80;100080.63;5078228;28;20044;-50
2021/05/31 08:40:10;;;;;;;2.65;0.93;;;;;;;20.05;23.38;100155.91;5053788;28;20093;-53
2021/05/31 08:42:38;;;;;;;3.10;1.27;;;;;;;19.65;23.51;100126.84;5071805;28;20040;-56
2021/05/31 08:45:06;;;;;;;5.32;1.30;;;;;;;19.65;24.25;100161.28;5084191;28;20036;-54
2021/05/31 08:47:39;;;;;;;3.33;1.33;;;;;;;19.50;24.49;100167.47;5065456;28;20032;-53
2021/05/31 08:50:05;;;;;;;3.25;1.23;;;;;;;18.73;24.66;100076.50;5082777;28;20032;-54
2021/05/31 08:52:31;;;;;;;9.60;1.63;;;;;;;18.44;25.14;100087.84;5071878;28;20048;-52
2021/05/31 08:54:57;;;;;;;4.53;1.50;;;;;;;18.46;25.88;100168.00;5069980;28;20473;-52
2021/05/31 08:57:25;;;;;;;6.57;1.48;;;;;;;17.69;26.83;100157.25;5076720;28;20401;-68
2021/05/31 08:59:50;;;;;;;6.13;1.75;;;;;;;17.28;27.15;100155.19;5071725;28;20028;-56
2021/05/31 09:02:17;;;;;;;7.07;1.27;;;;;;;17.17;27.76;100159.00;5071333;28;20051;-58
2021/05/31 09:04:51;;;;;;;5.65;1.58;;;;;;;17.07;28.13;100156.41;5071949;28;20042;-53
2021/05/31 09:07:20;;;;;;;2.78;1.40;;;;;;;16.86;28.42;100181.03;5074196;28;20059;-52
2021/05/31 09:09:47;;;;;;;9.20;1.60;;;;;;;16.57;28.73;100164.09;5067599;28;20039;-53
2021/05/31 09:12:20;;;;;;;6.40;1.30;;;;;;;16.32;29.61;100160.28;5043437;28;20040;-55
2021/05/31 09:14:54;;;;;;;5.20;1.10;;;;;;;15.79;29.52;100095.22;5071390;28;20036;-56
2021/05/31 09:17:41;;;;;;;6.18;1.60;;;;;;;16.23;28.79;100153.09;5070465;28;20085;-56
2021/05/31 09:20:08;;;;;;;4.75;1.45;;;;;;;15.89;29.14;100158.13;5073024;28;20039;-56
2021/05/31 09:22:53;;;;;;;2.75;1.33;;;;;;;15.90;29.03;100153.59;5072046;28;20555;-53
2021/05/31 09:25:37;;;;;;;4.05;1.23;;;;;;;15.79;29.44;100157.28;5075656;28;20036;-53
2021/05/31 09:28:09;;;;;;;4.93;1.30;;;;;;;15.77;29.87;100151.19;5070955;28;20481;-54
2021/05/31 09:30:42;;;;;;;5.90;1.70;;;;;;;15.90;29.81;100162.50;5078856;28;20035;-52
2021/05/31 09:33:12;;;;;;;6.50;1.40;;;;;;;15.72;29.92;100145.41;5074301;28;20065;-54
2021/05/31 09:35:43;;;;;;;7.10;1.77;;;;;;;15.70;30.00;100159.03;5071471;28;20058;-55
2021/05/31 09:38:10;;;;;;;7.10;1.30;;;;;;;15.70;30.12;100158.22;5082624;28;20036;-52
2021/05/31 09:40:36;;;;;;;4.38;1.20;;;;;;;15.68;30.15;100157.50;5055252;28;20040;-51
2021/05/31 09:43:05;;;;;;;6.55;1.40;;;;;;;15.68;30.13;100171.00;5070200;28;20037;-51
2021/05/31 09:45:33;;;;;;;3.30;1.50;;;;;;;15.72;29.85;100159.75;5074326;28;20042;-55
2021/05/31 09:48:03;;;;;;;5.22;1.55;;;;;;;15.66;29.19;100141.44;5073160;28;20044;-57
2021/05/31 09:50:31;;;;;;;5.63;1.38;;;;;;;15.55;29.54;100147.88;5073591;28;20040;-51
2021/05/31 09:53:06;;;;;;;4.38;1.45;;;;;;;15.43;29.69;100130.16;5074747;28;20044;-50
2021/05/31 09:55:34;;;;;;;5.43;1.43;;;;;;;15.60;29.88;100171.75;5055655;28;20547;-54
2021/05/31 09:58:00;;;;;;;7.28;1.50;;;;;;;15.19;30.01;100097.34;5080480;28;20685;-57
2021/05/31 10:00:30;;;;;;;4.57;1.15;;;;;;;15.38;29.91;100109.06;5072007;28;20036;-49
2021/05/31 10:03:04;;;;;;;6.28;1.42;;;;;;;15.55;30.07;100147.88;5074956;28;20040;-49
2021/05/31 10:08:16;;;;;;;3.70;1.35;;;;;;;15.79;28.60;100151.91;5074474;28;20039;-55
2021/05/31 10:10:43;;;;;;;4.03;1.40;;;;;;;15.80;28.75;100167.09;5071949;28;20038;-53
2021/05/31 10:13:09;;;;;;;5.70;1.05;;;;;;;15.82;28.94;100139.97;5082191;28;20028;-55
2021/05/31 10:15:40;;;;;;;2.67;1.05;;;;;;;15.65;28.59;100053.38;5083988;28;20404;-54
2021/05/31 10:18:07;;;;;;;4.40;1.48;;;;;;;16.72;27.61;100158.09;5074767;28;20054;-54
2021/05/31 10:20:37;;;;;;;5.65;1.65;;;;;;;16.61;26.90;100137.56;5073809;28;20036;-50
2021/05/31 10:23:03;;;;;;;3.22;1.20;;;;;;;16.81;26.84;100142.81;5084441;28;20032;-52
2021/05/31 10:25:29;;;;;;;3.70;1.38;;;;;;;17.12;26.61;100150.50;5073266;28;20035;-55
2021/05/31 10:27:59;;;;;;;4.30;1.60;;;;;;;17.45;26.52;100148.00;5084193;28;20086;-59
2021/05/31 10:30:25;;;;;;;7.57;1.30;;;;;;;17.70;26.05;100146.25;5078582;28;20067;-60
2021/05/31 10:32:51;;;;;;;2.97;1.30;;;;;;;17.81;26.10;100153.22;5078887;28;20119;-58
2021/05/31 10:35:22;;;;;;;3.25;1.50;;;;;;;17.94;26.23;100152.78;5074874;28;20118;-59
2021/05/31 10:37:56;;;;;;;6.13;1.33;;;;;;;18.06;25.90;100156.06;5074165;28;20040;-62
2021/05/31 10:40:33;;;;;;;3.22;1.13;;;;;;;18.24;25.58;100144.25;5078733;28;20032;-56
2021/05/31 10:42:58;;;;;;;5.22;1.10;;;;;;;17.90;25.57;100070.16;5057806;28;20061;-51
2021/05/31 10:45:26;;;;;;;1.60;1.00;;;;;;;18.35;25.01;100138.53;5082316;28;20020;-55
2021/05/31 10:47:55;;;;;;;2.88;1.30;;;;;;;18.33;24.96;100132.44;5090088;28;20039;-54
2021/05/31 10:50:28;;;;;;;4.65;1.40;;;;;;;18.35;24.51;100143.94;5080569;28;20028;-55
2021/05/31 10:52:54;;;;;;;4.13;0.98;;;;;;;18.20;24.26;100152.72;5073612;28;21405;-52
2021/05/31 10:55:19;;;;;;;6.10;1.10;;;;;;;17.89;24.74;100150.56;5073525;28;20483;-50
2021/05/31 10:57:46;;;;;;;1.60;1.02;;;;;;;17.40;25.40;100079.97;5073674;28;20086;-52
2021/05/31 11:00:33;;;;;;;4.43;1.20;;;;;;;17.83;25.38;100148.50;5070634;28;20150;-50
2021/05/31 11:03:09;;;;;;;3.30;1.30;;;;;;;17.94;25.81;100142.81;5071248;28;20040;-54
2021/05/31 11:05:36;;;;;;;;;;;;;;;18.46;25.38;100149.03;5075544;28;20162;-58
2021/05/31 11:08:03;;;;;;;2.83;1.50;;;;;;;17.91;25.23;100071.84;5069442;28;19920;-56
2021/05/31 11:10:31;;;;;;;4.38;1.92;;;;;;;18.36;24.61;100135.63;5078331;28;20036;-55
2021/05/31 11:13:08;;;;;;;3.53;1.85;;;;;;;18.43;24.81;100124.97;5070509;28;20038;-54
2021/05/31 11:15:34;;;;;;;6.82;1.27;;;;;;;18.47;24.67;100148.03;5061992;28;20024;-54
2021/05/31 11:18:00;;;;;;;2.67;1.48;;;;;;;18.63;24.70;100135.50;5077020;28;20052;-55
2021/05/31 11:20:28;;;;;;;3.15;1.30;;;;;;;18.89;24.65;100124.44;5077721;28;20546;-56
2021/05/31 11:22:57;;;;;;;2.78;1.40;;;;;;;18.65;23.93;100058.38;5074893;28;20059;-59
2021/05/31 11:25:23;;;;;;;2.88;1.50;;;;;;;19.12;24.19;100117.53;5075700;28;20031;-55
2021/05/31 11:28:01;;;;;;;5.00;1.25;;;;;;;19.22;24.38;100129.00;5074003;28;20177;-52
2021/05/31 11:30:31;;;;;;;2.78;1.35;;;;;;;19.38;23.95;100127.28;5073358;28;20111;-56
2021/05/31 11:32:59;;;;;;;3.88;1.42;;;;;;;19.48;23.91;100127.94;5070726;28;20040;-52
2021/05/31 11:35:26;;;;;;;8.60;1.80;;;;;;;19.55;24.23;100128.94;5072482;28;20032;-62
2021/05/31 11:37:54;;;;;;;6.00;1.60;;;;;;;19.32;24.13;100088.09;5073695;28;20127;-52
2021/05/31 11:40:31;;;;;;;2.95;1.48;;;;;;;19.77;23.98;100115.56;5077517;28;20041;-50
2021/05/31 11:43:03;;;;;;;3.33;1.50;;;;;;;19.71;23.76;100116.28;5076272;28;20545;-53
2021/05/31 11:45:34;;;;;;;2.22;1.23;;;;;;;19.63;23.45;100126.19;5070544;28;20027;-53
2021/05/31 11:48:08;;;;;;;3.80;1.30;;;;;;;19.72;23.11;100107.97;5080446;28;20044;-56